sensor_id;sensor_type;location;lat;lon;timestamp;temperature;humidity
3402;DHT22;1714;49.756;8.610;2023-09-18T00:06:33;21.30;1.00
3402;DHT22;1714;49.756;8.610;2023-09-18T00:17:08;21.10;1.00
3402;DHT22;1714;49.756;8.610;2023-09-18T00:27:43;21.00;1.00
3402;DHT22;1714;49.756;8.610;2023-09-18T00:38:19;20.90;1.00
3402;DHT22;1714;49.756;8.610;2023-09-18T00:48:57;20.80;1.00
3402;DHT22;1714;49.756;8.610;2023-09-18T00:59:32;20.70;1.00
3402;DHT22;1714;49.756;8.610;2023-09-18T01:10:09;20.60;1.00
3402;DHT22;1714;49.756;8.610;2023-09-18T01:20:44;20.60;1.00
3402;DHT22;1714;49.756;8.610;2023-09-18T01:31:20;20.30;1.00
3402;DHT22;1714;49.756;8.610;2023-09-18T01:41:55;20.30;1.00
3402;DHT22;1714;49.756;8.610;2023-09-18T01:52:30;20.20;1.00
3402;DHT22;1714;49.756;8.610;2023-09-18T02:03:05;20.30;1.00
3402;DHT22;1714;49.756;8.610;2023-09-18T02:14:00;20.30;1.00
3402;DHT22;1714;49.756;8.610;2023-09-18T02:24:35;20.40;1.00
3402;DHT22;1714;49.756;8.610;2023-09-18T02:35:10;20.40;1.00
3402;DHT22;1714;49.756;8.610;2023-09-18T02:45:46;20.20;1.00
3402;DHT22;1714;49.756;8.610;2023-09-18T02:56:21;20.10;1.00
3402;DHT22;1714;49.756;8.610;2023-09-18T03:06:56;20.00;1.00
3402;DHT22;1714;49.756;8.610;2023-09-18T03:17:31;19.90;1.00
3402;DHT22;1714;49.756;8.610;2023-09-18T03:28:06;20.00;1.00
3402;DHT22;1714;49.756;8.610;2023-09-18T03:38:41;19.90;1.00
3402;DHT22;1714;49.756;8.610;2023-09-18T03:49:16;20.10;1.00
3402;DHT22;1714;49.756;8.610;2023-09-18T03:59:52;20.10;1.00
3402;DHT22;1714;49.756;8.610;2023-09-18T04:10:27;20.10;1.00
3402;DHT22;1714;49.756;8.610;2023-09-18T04:21:02;20.20;1.00
3402;DHT22;1714;49.756;8.610;2023-09-18T04:31:37;20.30;1.00
3402;DHT22;1714;49.756;8.610;2023-09-18T04:42:15;20.40;1.00
3402;DHT22;1714;49.756;8.610;2023-09-18T04:52:49;20.30;1.00
3402;DHT22;1714;49.756;8.610;2023-09-18T05:03:28;20.10;1.00
3402;DHT22;1714;49.756;8.610;2023-09-18T05:14:04;20.00;1.00
3402;DHT22;1714;49.756;8.610;2023-09-18T05:24:40;20.00;1.00
3402;DHT22;1714;49.756;8.610;2023-09-18T05:35:15;20.00;1.00
3402;DHT22;1714;49.756;8.610;2023-09-18T05:45:51;19.90;1.00
3402;DHT22;1714;49.756;8.610;2023-09-18T05:56:26;19.80;1.00
3402;DHT22;1714;49.756;8.610;2023-09-18T06:07:01;19.80;1.00
3402;DHT22;1714;49.756;8.610;2023-09-18T06:17:40;19.90;1.00
3402;DHT22;1714;49.756;8.610;2023-09-18T06:28:16;20.00;1.00
3402;DHT22;1714;49.756;8.610;2023-09-18T06:38:51;20.00;1.00
3402;DHT22;1714;49.756;8.610;2023-09-18T06:49:26;20.10;1.00
3402;DHT22;1714;49.756;8.610;2023-09-18T07:00:02;20.20;1.00
3402;DHT22;1714;49.756;8.610;2023-09-18T07:10:39;20.30;1.00
3402;DHT22;1714;49.756;8.610;2023-09-18T07:21:14;20.30;1.00
3402;DHT22;1714;49.756;8.610;2023-09-18T07:31:49;20.40;1.00
3402;DHT22;1714;49.756;8.610;2023-09-18T07:42:27;20.50;1.00
3402;DHT22;1714;49.756;8.610;2023-09-18T07:53:02;20.60;1.00
3402;DHT22;1714;49.756;8.610;2023-09-18T08:03:37;20.80;1.00
3402;DHT22;1714;49.756;8.610;2023-09-18T08:14:12;20.80;1.00
3402;DHT22;1714;49.756;8.610;2023-09-18T08:24:48;21.00;1.00
3402;DHT22;1714;49.756;8.610;2023-09-18T08:35:23;21.00;1.00
3402;DHT22;1714;49.756;8.610;2023-09-18T08:46:02;21.20;1.00
3402;DHT22;1714;49.756;8.610;2023-09-18T08:56:37;21.30;1.00
3402;DHT22;1714;49.756;8.610;2023-09-18T09:07:12;21.50;1.00
3402;DHT22;1714;49.756;8.610;2023-09-18T09:17:49;21.60;1.00
3402;DHT22;1714;49.756;8.610;2023-09-18T09:28:30;21.50;1.00
3402;DHT22;1714;49.756;8.610;2023-09-18T09:39:05;21.80;1.00
3402;DHT22;1714;49.756;8.610;2023-09-18T09:49:47;21.90;1.00
3402;DHT22;1714;49.756;8.610;2023-09-18T10:00:25;21.80;1.00
3402;DHT22;1714;49.756;8.610;2023-09-18T10:11:08;21.90;1.00
3402;DHT22;1714;49.756;8.610;2023-09-18T10:21:57;21.80;1.00
3402;DHT22;1714;49.756;8.610;2023-09-18T10:32:35;21.90;1.00
3402;DHT22;1714;49.756;8.610;2023-09-18T10:43:11;22.40;1.00
3402;DHT22;1714;49.756;8.610;2023-09-18T10:53:47;22.40;1.00
3402;DHT22;1714;49.756;8.610;2023-09-18T11:04:23;22.60;1.00
3402;DHT22;1714;49.756;8.610;2023-09-18T11:14:59;22.80;1.00
3402;DHT22;1714;49.756;8.610;2023-09-18T11:36:28;23.60;1.00
3402;DHT22;1714;49.756;8.610;2023-09-18T11:47:13;23.60;1.00
3402;DHT22;1714;49.756;8.610;2023-09-18T11:57:56;23.60;1.00
3402;DHT22;1714;49.756;8.610;2023-09-18T12:08:35;24.60;1.00
3402;DHT22;1714;49.756;8.610;2023-09-18T12:19:16;25.20;1.00
3402;DHT22;1714;49.756;8.610;2023-09-18T12:29:52;24.30;1.00
3402;DHT22;1714;49.756;8.610;2023-09-18T12:40:31;23.90;1.00
3402;DHT22;1714;49.756;8.610;2023-09-18T12:51:09;23.90;1.00
3402;DHT22;1714;49.756;8.610;2023-09-18T13:01:48;23.70;1.00
3402;DHT22;1714;49.756;8.610;2023-09-18T13:12:23;24.00;1.00
3402;DHT22;1714;49.756;8.610;2023-09-18T13:23:00;23.90;1.00
3402;DHT22;1714;49.756;8.610;2023-09-18T13:33:44;23.90;1.00
3402;DHT22;1714;49.756;8.610;2023-09-18T13:44:19;23.40;1.00
3402;DHT22;1714;49.756;8.610;2023-09-18T13:54:56;23.70;1.00
3402;DHT22;1714;49.756;8.610;2023-09-18T14:05:31;23.60;1.00
3402;DHT22;1714;49.756;8.610;2023-09-18T14:16:08;24.40;1.00
3402;DHT22;1714;49.756;8.610;2023-09-18T14:26:44;24.60;1.00
3402;DHT22;1714;49.756;8.610;2023-09-18T14:37:19;24.40;1.00
3402;DHT22;1714;49.756;8.610;2023-09-18T14:47:54;24.40;1.00
3402;DHT22;1714;49.756;8.610;2023-09-18T14:58:29;24.10;1.00
3402;DHT22;1714;49.756;8.610;2023-09-18T15:09:04;24.60;1.00
3402;DHT22;1714;49.756;8.610;2023-09-18T15:19:39;24.70;1.00
3402;DHT22;1714;49.756;8.610;2023-09-18T15:30:14;24.60;1.00
3402;DHT22;1714;49.756;8.610;2023-09-18T15:40:49;23.70;1.00
3402;DHT22;1714;49.756;8.610;2023-09-18T15:51:24;23.50;1.00
3402;DHT22;1714;49.756;8.610;2023-09-18T16:01:59;23.50;1.00
3402;DHT22;1714;49.756;8.610;2023-09-18T16:12:35;23.60;1.00
3402;DHT22;1714;49.756;8.610;2023-09-18T16:23:10;23.40;1.00
3402;DHT22;1714;49.756;8.610;2023-09-18T16:33:45;23.20;1.00
3402;DHT22;1714;49.756;8.610;2023-09-18T16:44:20;23.10;1.00
3402;DHT22;1714;49.756;8.610;2023-09-18T16:54:55;23.10;1.00
3402;DHT22;1714;49.756;8.610;2023-09-18T17:05:33;22.90;1.00
3402;DHT22;1714;49.756;8.610;2023-09-18T17:16:09;22.70;1.00
3402;DHT22;1714;49.756;8.610;2023-09-18T17:26:44;22.50;1.00
3402;DHT22;1714;49.756;8.610;2023-09-18T17:37:19;22.40;1.00
3402;DHT22;1714;49.756;8.610;2023-09-18T17:47:54;22.30;1.00
3402;DHT22;1714;49.756;8.610;2023-09-18T17:58:29;22.20;1.00
3402;DHT22;1714;49.756;8.610;2023-09-18T18:09:04;21.60;1.00
3402;DHT22;1714;49.756;8.610;2023-09-18T18:19:39;21.40;1.00
3402;DHT22;1714;49.756;8.610;2023-09-18T18:30:14;21.00;1.00
3402;DHT22;1714;49.756;8.610;2023-09-18T18:40:57;20.50;1.00
3402;DHT22;1714;49.756;8.610;2023-09-18T18:51:39;20.30;1.00
3402;DHT22;1714;49.756;8.610;2023-09-18T19:02:14;20.20;1.00
3402;DHT22;1714;49.756;8.610;2023-09-18T19:12:48;19.70;1.00
3402;DHT22;1714;49.756;8.610;2023-09-18T19:23:23;19.60;1.00
3402;DHT22;1714;49.756;8.610;2023-09-18T19:33:58;19.50;1.00
3402;DHT22;1714;49.756;8.610;2023-09-18T19:44:38;19.10;1.00
3402;DHT22;1714;49.756;8.610;2023-09-18T19:55:16;19.10;1.00
3402;DHT22;1714;49.756;8.610;2023-09-18T20:06:02;18.60;1.00
3402;DHT22;1714;49.756;8.610;2023-09-18T20:16:39;18.30;1.00
3402;DHT22;1714;49.756;8.610;2023-09-18T20:27:23;18.30;1.00
3402;DHT22;1714;49.756;8.610;2023-09-18T20:38:07;18.00;1.00
3402;DHT22;1714;49.756;8.610;2023-09-18T20:48:45;18.00;1.00
3402;DHT22;1714;49.756;8.610;2023-09-18T20:59:20;18.10;1.00
3402;DHT22;1714;49.756;8.610;2023-09-18T21:09:55;18.00;1.00
3402;DHT22;1714;49.756;8.610;2023-09-18T21:20:30;18.00;1.00
3402;DHT22;1714;49.756;8.610;2023-09-18T21:31:14;17.90;1.00
3402;DHT22;1714;49.756;8.610;2023-09-18T21:41:55;18.00;1.00
3402;DHT22;1714;49.756;8.610;2023-09-18T21:52:30;17.90;1.00
3402;DHT22;1714;49.756;8.610;2023-09-18T22:03:09;18.10;1.00
3402;DHT22;1714;49.756;8.610;2023-09-18T22:13:44;18.30;1.00
3402;DHT22;1714;49.756;8.610;2023-09-18T22:24:19;18.20;1.00
3402;DHT22;1714;49.756;8.610;2023-09-18T22:34:54;18.20;1.00
3402;DHT22;1714;49.756;8.610;2023-09-18T22:56:42;18.10;1.00
3402;DHT22;1714;49.756;8.610;2023-09-18T23:07:18;17.90;1.00
3402;DHT22;1714;49.756;8.610;2023-09-18T23:17:53;17.80;1.00
3402;DHT22;1714;49.756;8.610;2023-09-18T23:28:30;17.70;1.00
3402;DHT22;1714;49.756;8.610;2023-09-18T23:39:07;17.60;1.00
3402;DHT22;1714;49.756;8.610;2023-09-18T23:49:44;17.50;1.00
